Time;durP1;ratioP1;P1;durP2;ratioP2;P2;SDS_P1;SDS_P2;PMS_P1;PMS_P2;Temp;Humidity;BMP_temperature;BMP_pressure;BME280_temperature;BME280_humidity;BME280_pressure;Samples;Min_cycle;Max_cycle;Signal;HPM_P1;HPM_P2
2022/10/17 00:00:51;;;;;;;7.55;3.95;;;;;;;3.25;100.00;102057.02;1803474;79;20994;-55
2022/10/17 00:03:18;;;;;;;7.30;3.85;;;;;;;3.21;100.00;102055.55;1801318;79;20974;-57
2022/10/17 00:05:47;;;;;;;7.87;4.60;;;;;;;3.18;100.00;102057.84;1793393;80;21010;-55
2022/10/17 00:08:15;;;;;;;7.72;4.37;;;;;;;3.16;100.00;102063.09;1793526;80;21164;-56
2022/10/17 00:10:44;;;;;;;6.85;3.87;;;;;;;3.16;100.00;102053.25;1793472;80;20962;-54
2022/10/17 00:13:13;;;;;;;7.15;4.10;;;;;;;3.12;100.00;102057.75;1793379;80;20975;-63
2022/10/17 00:15:43;;;;;;;8.63;3.98;;;;;;;3.06;100.00;102050.37;1793375;80;21040;-54
2022/10/17 00:18:12;;;;;;;7.35;3.90;;;;;;;3.11;100.00;102049.66;1793372;80;21045;-54
2022/10/17 00:20:39;;;;;;;7.12;4.12;;;;;;;3.16;100.00;102050.67;1793172;80;21259;-55
2022/10/17 00:23:07;;;;;;;6.62;3.77;;;;;;;3.13;100.00;102049.09;1793139;78;20999;-60
2022/10/17 00:25:36;;;;;;;6.72;4.25;;;;;;;3.15;100.00;102055.47;1793408;80;21276;-55
2022/10/17 00:28:03;;;;;;;8.48;4.00;;;;;;;3.12;100.00;102053.06;1793443;80;21047;-55
2022/10/17 00:30:32;;;;;;;6.08;4.10;;;;;;;3.11;100.00;102060.44;1792965;80;20934;-57
2022/10/17 00:32:59;;;;;;;7.10;4.00;;;;;;;3.08;100.00;102061.44;1793085;80;21140;-55
2022/10/17 00:35:27;;;;;;;8.78;4.42;;;;;;;3.03;100.00;102061.31;1792565;78;20991;-59
2022/10/17 00:37:55;;;;;;;6.83;3.92;;;;;;;3.04;100.00;102066.39;1793328;80;22038;-55
2022/10/17 00:40:22;;;;;;;7.25;4.55;;;;;;;3.02;100.00;102063.06;1793279;78;20972;-55
2022/10/17 00:42:52;;;;;;;8.03;4.28;;;;;;;3.02;100.00;102069.51;1793524;80;21045;-56
2022/10/17 00:45:27;;;;;;;7.00;3.90;;;;;;;3.02;100.00;102076.41;1792999;80;21273;-57
2022/10/17 00:48:03;;;;;;;6.10;3.40;;;;;;;2.99;100.00;102072.72;1793059;80;21242;-55
2022/10/17 00:50:30;;;;;;;7.62;4.33;;;;;;;2.96;100.00;102071.17;1793276;80;21019;-54
2022/10/17 00:53:00;;;;;;;7.05;3.80;;;;;;;2.90;100.00;102073.63;1793263;78;20989;-62
2022/10/17 00:55:34;;;;;;;6.85;4.17;;;;;;;2.85;100.00;102078.69;1793313;78;21445;-54
2022/10/17 00:58:03;;;;;;;7.75;3.50;;;;;;;2.86;100.00;102080.34;1793671;80;21247;-55
2022/10/17 01:00:30;;;;;;;6.72;3.85;;;;;;;2.86;100.00;102082.91;1793148;80;20942;-56
2022/10/17 01:02:59;;;;;;;6.33;3.47;;;;;;;2.85;100.00;102085.13;1792832;80;20966;-62
2022/10/17 01:05:26;;;;;;;7.33;3.83;;;;;;;2.83;100.00;102088.23;1802754;79;21870;-54
2022/10/17 01:07:53;;;;;;;7.85;3.58;;;;;;;2.83;100.00;102089.52;1803593;79;21041;-55
2022/10/17 01:10:22;;;;;;;7.10;3.87;;;;;;;2.83;100.00;102085.66;1803432;79;21309;-55
2022/10/17 01:13:03;;;;;;;6.33;3.72;;;;;;;2.81;100.00;102087.51;1803206;79;20907;-62
2022/10/17 01:15:43;;;;;;;7.58;3.90;;;;;;;2.83;100.00;102083.08;1803445;79;21804;-55
2022/10/17 01:18:29;;;;;;;8.30;4.10;;;;;;;2.85;100.00;102087.70;1803490;79;20985;-55
2022/10/17 01:21:33;;;;;;;8.65;4.30;;;;;;;2.81;100.00;102097.34;1802238;79;21140;-55
2022/10/17 01:24:21;;;;;;;7.92;4.00;;;;;;;2.77;100.00;102104.05;1765022;81;21801;-55
2022/10/17 01:27:23;;;;;;;6.72;3.80;;;;;;;2.74;100.00;102102.47;1801335;79;20946;-55
2022/10/17 01:30:26;;;;;;;7.47;4.03;;;;;;;2.73;100.00;102099.97;1783818;79;20887;-56
2022/10/17 01:32:57;;;;;;;7.12;3.67;;;;;;;2.68;100.00;102101.52;1803557;79;20950;-55
2022/10/17 01:35:36;;;;;;;7.58;4.33;;;;;;;2.62;100.00;102111.72;1772471;79;20922;-55
2022/10/17 01:38:13;;;;;;;7.00;4.12;;;;;;;2.54;100.00;102115.19;1763494;79;21798;-54
2022/10/17 01:41:06;;;;;;;7.03;3.77;;;;;;;2.50;100.00;102113.70;1798126;79;21829;-55
2022/10/17 01:43:40;;;;;;;7.47;4.08;;;;;;;2.47;100.00;102117.72;1803224;79;20982;-55
2022/10/17 01:46:25;;;;;;;7.17;3.77;;;;;;;2.40;100.00;102118.51;1803085;79;21471;-55
2022/10/17 01:48:55;;;;;;;7.83;4.20;;;;;;;2.35;100.00;102118.37;1803387;79;21046;-55
2022/10/17 01:51:35;;;;;;;7.37;4.20;;;;;;;2.33;100.00;102120.22;1803643;79;21174;-55
2022/10/17 01:54:10;;;;;;;6.22;3.95;;;;;;;2.27;100.00;102124.39;1802147;79;20934;-55
2022/10/17 01:56:38;;;;;;;8.20;4.25;;;;;;;2.29;100.00;102128.55;1794461;79;21408;-55
2022/10/17 01:59:10;;;;;;;6.75;4.17;;;;;;;2.22;100.00;102130.26;1803269;79;21402;-55
2022/10/17 02:01:38;;;;;;;6.08;3.62;;;;;;;2.18;100.00;102129.13;1747937;79;20922;-59
2022/10/17 02:04:06;;;;;;;7.17;4.17;;;;;;;2.19;100.00;102129.50;1802963;79;21754;-55
2022/10/17 02:06:35;;;;;;;5.83;3.47;;;;;;;2.19;100.00;102123.06;1803276;79;20954;-55
2022/10/17 02:09:21;;;;;;;8.38;4.10;;;;;;;2.21;100.00;102125.58;1803404;79;21064;-55
2022/10/17 02:11:58;;;;;;;6.33;3.47;;;;;;;2.24;100.00;102119.44;1803195;79;21018;-55
2022/10/17 02:14:42;;;;;;;7.20;3.98;;;;;;;2.21;100.00;102128.14;1802889;79;20871;-55
2022/10/17 02:17:51;;;;;;;8.08;4.12;;;;;;;2.24;100.00;102127.16;1803044;79;21259;-57
2022/10/17 02:20:26;;;;;;;7.97;4.22;;;;;;;2.23;100.00;102125.48;1803476;79;21033;-55
2022/10/17 02:23:23;;;;;;;9.20;4.40;;;;;;;2.23;100.00;102129.34;1803191;79;20986;-55
2022/10/17 02:26:02;;;;;;;6.95;3.37;;;;;;;2.23;100.00;102130.63;1803646;79;20954;-55
2022/10/17 02:28:40;;;;;;;6.80;4.10;;;;;;;2.23;100.00;102130.63;1785116;79;20958;-56
2022/10/17 02:31:17;;;;;;;6.42;3.60;;;;;;;2.27;100.00;102127.80;1802885;79;21257;-55
2022/10/17 02:33:57;;;;;;;9.43;4.08;;;;;;;2.26;100.00;102124.03;1771835;79;20982;-56
2022/10/17 02:36:29;;;;;;;6.28;3.90;;;;;;;2.25;100.00;102121.92;1803150;79;21066;-54
2022/10/17 02:38:57;;;;;;;8.48;4.17;;;;;;;2.27;100.00;102121.82;1771813;79;20907;-55
2022/10/17 02:41:24;;;;;;;8.08;4.55;;;;;;;2.22;100.00;102127.22;1803914;79;21444;-55
2022/10/17 02:43:51;;;;;;;6.50;3.77;;;;;;;2.25;100.00;102123.67;1802814;79;21264;-56
2022/10/17 02:46:21;;;;;;;8.73;3.92;;;;;;;2.26;100.00;102118.42;1803761;79;21041;-55
2022/10/17 02:48:55;;;;;;;6.40;4.40;;;;;;;2.26;100.00;102120.17;1803841;79;21515;-55
2022/10/17 02:51:27;;;;;;;8.50;4.75;;;;;;;2.23;100.00;102117.76;1803473;79;21007;-57
2022/10/17 02:54:12;;;;;;;6.80;4.03;;;;;;;2.15;100.00;102115.59;1799309;79;21048;-55
2022/10/17 02:56:44;;;;;;;7.75;4.17;;;;;;;2.11;100.00;102121.36;1803687;79;21125;-55
2022/10/17 02:59:13;;;;;;;8.50;5.12;;;;;;;2.06;100.00;102125.11;1773409;79;20926;-55
2022/10/17 03:01:41;;;;;;;5.72;3.95;;;;;;;2.03;100.00;102123.52;1771845;79;21236;-55
2022/10/17 03:04:11;;;;;;;7.37;3.80;;;;;;;1.99;100.00;102128.91;1801667;79;21078;-55
2022/10/17 03:06:40;;;;;;;6.78;4.12;;;;;;;1.94;100.00;102128.70;1793585;80;21579;-55
2022/10/17 03:09:08;;;;;;;6.47;4.28;;;;;;;1.89;100.00;102129.38;1793399;80;21905;-57
2022/10/17 03:11:35;;;;;;;7.10;4.15;;;;;;;1.83;100.00;102131.47;1793127;80;20948;-55
2022/10/17 03:14:04;;;;;;;6.78;4.00;;;;;;;1.80;100.00;102136.77;1793359;80;20976;-55
2022/10/17 03:16:31;;;;;;;7.40;4.37;;;;;;;1.77;100.00;102135.63;1793592;80;21457;-55
2022/10/17 03:19:00;;;;;;;7.20;3.90;;;;;;;1.69;100.00;102131.72;1793655;80;20947;-63
2022/10/17 03:21:29;;;;;;;8.00;4.40;;;;;;;1.63;100.00;102129.91;1793224;80;20932;-55
2022/10/17 03:23:56;;;;;;;8.20;4.75;;;;;;;1.61;100.00;102132.57;1793416;80;21103;-55
2022/10/17 03:26:24;;;;;;;7.22;4.50;;;;;;;1.57;100.00;102129.78;1793345;80;20916;-55
2022/10/17 03:28:51;;;;;;;5.95;3.60;;;;;;;1.52;100.00;102131.77;1793675;78;21473;-56
2022/10/17 03:31:18;;;;;;;6.85;3.98;;;;;;;1.51;100.00;102135.23;1792732;80;20998;-56
2022/10/17 03:33:46;;;;;;;7.40;4.58;;;;;;;1.56;100.00;102138.41;1793235;80;21341;-55
2022/10/17 03:36:16;;;;;;;6.28;3.67;;;;;;;1.56;100.00;102131.98;1793276;78;20995;-55
2022/10/17 03:38:45;;;;;;;7.62;3.85;;;;;;;1.62;100.00;102130.37;1793554;80;20991;-55
2022/10/17 03:41:12;;;;;;;7.47;4.05;;;;;;;1.60;100.00;102132.66;1793466;80;21002;-63
2022/10/17 03:43:41;;;;;;;7.67;4.00;;;;;;;1.57;100.00;102128.50;1793381;80;21049;-55
2022/10/17 03:46:08;;;;;;;8.73;4.47;;;;;;;1.56;100.00;102138.41;1793224;78;21231;-56
2022/10/17 03:48:37;;;;;;;6.83;4.37;;;;;;;1.52;100.00;102140.77;1793211;80;20919;-55
2022/10/17 03:51:07;;;;;;;8.03;4.15;;;;;;;1.61;100.00;102135.14;1792875;80;20943;-57
2022/10/17 03:53:37;;;;;;;6.22;3.90;;;;;;;1.67;100.00;102143.84;1793572;80;27378;-55
2022/10/17 03:56:13;;;;;;;9.30;4.42;;;;;;;1.74;100.00;102140.93;1793753;80;21465;-57
2022/10/17 03:58:42;;;;;;;6.05;3.80;;;;;;;1.74;100.00;102144.78;1792936;80;20939;-59
2022/10/17 04:01:11;;;;;;;7.97;3.70;;;;;;;1.78;100.00;102141.14;1793456;80;20993;-55
2022/10/17 04:03:39;;;;;;;6.60;3.87;;;;;;;1.82;100.00;102138.78;1793657;80;21394;-56
2022/10/17 04:06:07;;;;;;;7.55;4.20;;;;;;;1.89;100.00;102143.98;1801840;79;20959;-56
2022/10/17 04:08:35;;;;;;;9.15;5.30;;;;;;;1.88;100.00;102139.77;1803336;79;21405;-55
2022/10/17 04:11:07;;;;;;;7.45;4.50;;;;;;;1.92;100.00;102147.23;1802989;79;21083;-55
2022/10/17 04:13:34;;;;;;;8.38;4.20;;;;;;;1.99;100.00;102151.61;1803400;79;21323;-55
2022/10/17 04:16:09;;;;;;;8.40;4.40;;;;;;;2.03;100.00;102144.56;1803659;79;21050;-55
2022/10/17 04:18:40;;;;;;;7.75;4.40;;;;;;;2.06;100.00;102149.09;1803337;79;21001;-57
2022/10/17 04:21:08;;;;;;;7.80;4.53;;;;;;;2.08;100.00;102156.25;1803411;79;21076;-56
2022/10/17 04:23:35;;;;;;;8.40;4.25;;;;;;;2.12;100.00;102154.34;1803588;79;21263;-55
2022/10/17 04:26:04;;;;;;;9.65;4.65;;;;;;;2.16;100.00;102154.12;1802367;79;21018;-55
2022/10/17 04:28:31;;;;;;;8.28;4.62;;;;;;;2.25;100.00;102153.25;1803589;79;21057;-55
2022/10/17 04:31:04;;;;;;;12.10;5.10;;;;;;;2.36;100.00;102158.20;1802655;79;21048;-57
2022/10/17 04:33:33;;;;;;;7.58;4.17;;;;;;;2.48;100.00;102155.41;1803134;79;21071;-55
2022/10/17 04:36:06;;;;;;;7.25;4.58;;;;;;;2.63;100.00;102157.14;1803251;79;21174;-55
2022/10/17 04:38:35;;;;;;;7.45;4.37;;;;;;;2.79;100.00;102148.56;1803534;79;20943;-64
2022/10/17 04:41:05;;;;;;;7.50;4.30;;;;;;;2.94;100.00;102156.70;1802886;79;21508;-56
2022/10/17 04:43:34;;;;;;;7.50;4.42;;;;;;;3.10;100.00;102156.20;1803174;79;21060;-55
2022/10/17 04:46:03;;;;;;;7.30;4.42;;;;;;;3.24;100.00;102146.86;1803395;79;20974;-55
2022/10/17 04:48:30;;;;;;;6.58;4.03;;;;;;;3.38;100.00;102156.74;1803460;79;21969;-55
2022/10/17 04:51:01;;;;;;;7.08;4.45;;;;;;;3.48;100.00;102147.16;1802613;79;21110;-57
2022/10/17 04:53:33;;;;;;;8.90;4.83;;;;;;;3.65;100.00;102152.16;1802991;79;20989;-55
2022/10/17 04:56:01;;;;;;;7.25;4.92;;;;;;;3.74;100.00;102146.45;1803304;79;21012;-55
2022/10/17 04:58:29;;;;;;;8.20;4.62;;;;;;;3.83;100.00;102147.66;1803909;79;20986;-55
2022/10/17 05:00:56;;;;;;;6.45;4.10;;;;;;;3.91;100.00;102149.31;1802888;79;22015;-56
2022/10/17 05:03:25;;;;;;;7.97;5.20;;;;;;;3.95;100.00;102155.12;1802997;79;20991;-55
2022/10/17 05:05:52;;;;;;;7.30;4.40;;;;;;;4.03;100.00;102162.75;1785418;79;21484;-55
2022/10/17 05:08:20;;;;;;;6.33;4.53;;;;;;;4.09;100.00;102157.66;1774240;80;21606;-55
2022/10/17 05:10:49;;;;;;;10.03;5.00;;;;;;;4.18;100.00;102166.61;1773647;80;20964;-64
2022/10/17 05:13:17;;;;;;;8.68;4.40;;;;;;;4.35;100.00;102159.92;1774069;80;21165;-55
2022/10/17 05:15:44;;;;;;;7.03;4.35;;;;;;;4.47;100.00;102163.05;1773980;80;20992;-56
2022/10/17 05:18:13;;;;;;;6.17;4.03;;;;;;;4.62;100.00;102163.38;1774483;80;20969;-54
2022/10/17 05:20:42;;;;;;;8.53;4.35;;;;;;;4.79;100.00;102173.09;1773762;80;21500;-56
2022/10/17 05:23:10;;;;;;;8.43;4.22;;;;;;;5.00;100.00;102170.42;1774407;80;21543;-55
2022/10/17 05:25:39;;;;;;;8.05;4.30;;;;;;;5.20;100.00;102167.82;1774090;80;21077;-55
2022/10/17 05:28:07;;;;;;;8.28;4.42;;;;;;;5.39;100.00;102176.48;1774221;80;21001;-56
2022/10/17 05:30:35;;;;;;;7.50;4.47;;;;;;;5.64;100.00;102175.64;1774167;80;20996;-57
2022/10/17 05:33:02;;;;;;;6.45;4.15;;;;;;;5.92;100.00;102175.08;1773832;80;20953;-55
2022/10/17 05:35:31;;;;;;;8.43;4.40;;;;;;;6.35;100.00;102179.41;1774203;80;21929;-56
2022/10/17 05:37:59;;;;;;;6.07;4.07;;;;;;;6.94;100.00;102166.53;1774245;80;21283;-55
2022/10/17 05:40:27;;;;;;;6.27;4.10;;;;;;;7.67;100.00;102171.87;1774285;80;21608;-55
2022/10/17 05:42:54;;;;;;;5.67;3.70;;;;;;;8.27;100.00;102173.26;1773769;80;21247;-63
2022/10/17 05:45:22;;;;;;;6.53;4.03;;;;;;;9.10;100.00;102177.03;1774224;80;22375;-55
2022/10/17 05:47:49;;;;;;;6.30;4.13;;;;;;;9.10;100.00;102177.03;1774465;80;21478;-55
2022/10/17 05:50:20;;;;;;;7.37;4.33;;;;;;;9.86;100.00;102176.29;1774414;80;21520;-56
2022/10/17 05:52:54;;;;;;;7.50;4.50;;;;;;;9.86;100.00;102176.29;1770703;80;21599;-62
2022/10/17 05:55:22;;;;;;;7.63;4.33;;;;;;;10.07;100.00;102179.30;1745232;80;22161;-55
2022/10/17 05:57:51;;;;;;;7.40;4.33;;;;;;;10.23;100.00;102183.06;1774525;80;20994;-55
2022/10/17 06:00:20;;;;;;;8.47;4.23;;;;;;;10.56;100.00;102172.44;1774630;80;20905;-55
2022/10/17 06:02:48;;;;;;;9.50;5.07;;;;;;;10.98;100.00;102171.68;1773471;80;21223;-55
2022/10/17 06:05:17;;;;;;;6.13;3.60;;;;;;;11.44;100.00;102176.65;1748342;80;21495;-56
2022/10/17 06:07:45;;;;;;;8.37;4.30;;;;;;;11.93;100.00;102176.84;1788038;79;21146;-55
2022/10/17 06:10:16;;;;;;;6.97;4.00;;;;;;;12.27;100.00;102172.79;1788283;80;21048;-56
2022/10/17 06:12:43;;;;;;;5.70;3.97;;;;;;;12.45;100.00;102181.97;1788476;80;20990;-56
2022/10/17 06:15:12;;;;;;;6.80;4.20;;;;;;;12.66;100.00;102182.52;1787848;80;20946;-62
2022/10/17 06:17:41;;;;;;;6.13;3.80;;;;;;;12.91;100.00;102175.20;1788012;80;21026;-55
2022/10/17 06:20:10;;;;;;;5.87;4.07;;;;;;;13.27;100.00;102179.11;1788479;80;21034;-55
2022/10/17 06:22:37;;;;;;;6.40;4.20;;;;;;;13.52;100.00;102177.94;1788269;80;21449;-57
2022/10/17 06:25:08;;;;;;;6.20;4.13;;;;;;;13.80;92.58;102174.17;1787701;80;20912;-62
2022/10/17 06:27:35;;;;;;;7.83;4.50;;;;;;;14.00;87.11;102176.05;1788427;80;21883;-56
2022/10/17 06:30:03;;;;;;;6.50;4.60;;;;;;;14.04;84.05;102177.86;1762001;80;20974;-54
2022/10/17 06:32:31;;;;;;;5.20;3.97;;;;;;;14.09;80.83;102179.50;1788529;80;20966;-54
2022/10/17 06:34:59;;;;;;;6.77;4.77;;;;;;;14.06;79.73;102178.53;1788222;80;20975;-54
2022/10/17 06:37:31;;;;;;;6.77;4.20;;;;;;;14.23;79.10;102178.90;1787688;80;21836;-55
2022/10/17 06:39:59;;;;;;;6.13;4.53;;;;;;;14.48;76.65;102174.54;1761846;80;21776;-55
2022/10/17 06:42:27;;;;;;;6.13;4.30;;;;;;;14.65;74.96;102179.33;1788215;80;21599;-55
2022/10/17 06:44:55;;;;;;;6.50;4.70;;;;;;;14.73;72.41;102179.34;1786805;80;20891;-56
2022/10/17 06:47:34;;;;;;;7.03;4.97;;;;;;;14.98;72.06;102182.80;1787425;80;21021;-56
2022/10/17 06:50:03;;;;;;;6.77;4.30;;;;;;;15.16;67.40;102185.75;1787724;80;21145;-54
2022/10/17 06:52:33;;;;;;;6.67;4.50;;;;;;;15.14;65.06;102183.77;1787641;80;21856;-54
2022/10/17 06:55:11;;;;;;;6.33;4.40;;;;;;;15.05;65.43;102179.03;1783818;80;21005;-57
2022/10/17 06:57:43;;;;;;;6.97;4.50;;;;;;;15.10;65.12;102178.03;1786506;80;20907;-56
2022/10/17 07:00:28;;;;;;;7.67;5.30;;;;;;;15.18;64.59;102181.14;1788201;79;21098;-61
2022/10/17 07:02:56;;;;;;;6.20;4.50;;;;;;;15.11;62.77;102179.66;1787930;80;21069;-57
2022/10/17 07:05:24;;;;;;;6.17;4.63;;;;;;;14.99;62.73;102175.73;1790314;79;21915;-55
2022/10/17 07:07:52;;;;;;;5.60;4.23;;;;;;;14.97;64.29;102181.66;1803402;79;20930;-56
2022/10/17 07:10:19;;;;;;;6.07;4.10;;;;;;;15.12;64.37;102180.51;1803468;79;20895;-55
2022/10/17 07:12:48;;;;;;;5.33;3.83;;;;;;;15.42;65.94;102181.58;1803151;79;21057;-60
2022/10/17 07:15:16;;;;;;;5.87;4.17;;;;;;;15.64;61.00;102178.23;1803984;79;21870;-55
2022/10/17 07:17:49;;;;;;;6.03;3.73;;;;;;;15.60;60.05;102177.44;1803904;79;21240;-56
2022/10/17 07:20:18;;;;;;;5.67;3.80;;;;;;;15.47;59.66;102170.09;1772825;79;21048;-54
2022/10/17 07:22:46;;;;;;;5.43;3.80;;;;;;;15.37;59.65;102172.08;1802973;79;20895;-56
2022/10/17 07:25:13;;;;;;;5.33;3.90;;;;;;;15.39;61.33;102174.05;1803434;79;22058;-55
2022/10/17 07:27:48;;;;;;;5.70;3.73;;;;;;;15.52;61.03;102168.58;1803432;79;20954;-55
2022/10/17 07:30:15;;;;;;;5.93;4.10;;;;;;;15.54;59.64;102166.62;1773182;79;21334;-59
2022/10/17 07:32:44;;;;;;;5.73;3.87;;;;;;;15.43;59.93;102164.84;1800707;79;21486;-54
2022/10/17 07:35:12;;;;;;;5.10;3.60;;;;;;;15.37;59.23;102169.45;1803641;79;20946;-56
2022/10/17 07:37:40;;;;;;;6.30;4.20;;;;;;;15.32;59.64;102167.33;1803655;79;21001;-54
2022/10/17 07:40:08;;;;;;;6.97;3.90;;;;;;;15.37;60.43;102161.56;1803671;79;21010;-60
2022/10/17 07:42:36;;;;;;;6.03;3.43;;;;;;;15.45;60.08;102162.85;1803743;79;22358;-54
2022/10/17 07:45:04;;;;;;;5.57;3.43;;;;;;;15.38;59.73;102158.79;1803911;79;20995;-54
2022/10/17 07:47:34;;;;;;;5.97;3.37;;;;;;;15.36;60.49;102157.30;1772218;79;21546;-56
2022/10/17 07:50:02;;;;;;;5.93;3.97;;;;;;;15.48;59.68;102164.66;1803622;79;20966;-56
2022/10/17 07:52:31;;;;;;;6.17;3.80;;;;;;;15.53;59.89;102162.83;1803374;79;21030;-54
2022/10/17 07:54:58;;;;;;;6.10;4.17;;;;;;;15.59;59.39;102146.39;1803754;79;21259;-54
2022/10/17 07:57:27;;;;;;;5.40;3.50;;;;;;;15.62;59.50;102151.31;1803736;79;21417;-55
2022/10/17 07:59:54;;;;;;;5.60;3.47;;;;;;;15.65;58.71;102160.21;1803999;79;21500;-54
2022/10/17 08:02:24;;;;;;;5.27;3.90;;;;;;;15.69;58.33;102152.80;1803228;79;21081;-61
2022/10/17 08:04:51;;;;;;;6.13;3.80;;;;;;;15.72;59.42;102155.92;1803271;79;21970;-54
2022/10/17 08:07:20;;;;;;;7.30;3.60;;;;;;;15.92;59.05;102147.61;1803632;79;21165;-54
2022/10/17 08:09:49;;;;;;;5.20;3.53;;;;;;;15.96;58.09;102149.72;1803692;79;20970;-55
2022/10/17 08:12:16;;;;;;;5.80;3.47;;;;;;;16.07;58.44;102142.44;1803112;79;20938;-56
2022/10/17 08:14:44;;;;;;;6.83;3.77;;;;;;;16.16;57.68;102144.84;1803846;79;22099;-55
2022/10/17 08:17:13;;;;;;;5.93;3.73;;;;;;;16.36;57.36;102139.94;1803760;79;20973;-58
2022/10/17 08:19:41;;;;;;;6.00;3.60;;;;;;;16.60;56.30;102141.59;1803512;79;21213;-57
2022/10/17 08:22:08;;;;;;;5.90;3.50;;;;;;;16.57;55.96;102138.48;1803515;79;20979;-64
2022/10/17 08:24:36;;;;;;;5.27;3.37;;;;;;;16.59;55.84;102137.30;1803531;79;21545;-56
2022/10/17 08:27:10;;;;;;;4.93;3.47;;;;;;;16.58;56.00;102145.38;1803622;79;21021;-56
2022/10/17 08:29:33;;;;;;;5.57;3.87;;;;;;;16.61;56.37;102159.02;1802706;79;21045;-56
2022/10/17 08:32:02;;;;;;;5.50;3.10;;;;;;;16.57;54.90;102149.83;1803536;79;21301;-58
2022/10/17 08:34:29;;;;;;;5.03;3.37;;;;;;;16.68;56.01;102152.05;1803674;79;21393;-56
2022/10/17 08:36:56;;;;;;;5.90;3.50;;;;;;;16.84;55.37;102159.53;1803902;79;20879;-56
2022/10/17 08:39:25;;;;;;;4.30;3.20;;;;;;;17.15;55.65;102164.67;1803794;79;21030;-56
2022/10/17 08:42:06;;;;;;;4.90;3.30;;;;;;;17.55;53.83;102158.66;1803817;79;21002;-63
2022/10/17 08:45:00;;;;;;;5.50;3.17;;;;;;;17.68;52.71;102164.91;1784577;79;21158;-57
2022/10/17 08:47:35;;;;;;;5.37;3.23;;;;;;;17.63;51.41;102166.47;1803185;79;21527;-59
2022/10/17 08:50:05;;;;;;;5.63;2.80;;;;;;;17.57;51.36;102171.96;1803167;79;21289;-56
2022/10/17 08:52:45;;;;;;;4.70;3.07;;;;;;;17.70;51.34;102176.11;1803561;79;20914;-56
2022/10/17 08:55:22;;;;;;;4.37;3.00;;;;;;;17.65;49.93;102170.58;1803031;79;21042;-64
2022/10/17 08:57:48;;;;;;;5.67;2.77;;;;;;;17.83;50.44;102171.52;1802851;79;21227;-56
2022/10/17 09:00:20;;;;;;;4.37;2.87;;;;;;;18.16;50.55;102177.70;1803862;79;21499;-56
2022/10/17 09:03:06;;;;;;;4.85;2.98;;;;;;;18.28;48.86;102166.96;1804123;79;21007;-56
2022/10/17 09:05:50;;;;;;;6.10;2.93;;;;;;;18.20;48.68;102166.58;1803487;79;21018;-57
2022/10/17 09:08:41;;;;;;;;;;;;;;;18.21;48.46;102160.28;1761162;81;20991;-56
2022/10/17 09:11:19;;;;;;;4.20;2.77;;;;;;;18.04;47.69;102143.06;1720446;81;21275;-55
2022/10/17 09:14:04;;;;;;;4.67;2.93;;;;;;;17.70;48.72;102145.77;1742034;82;21537;-56
2022/10/17 09:17:04;;;;;;;4.93;3.03;;;;;;;17.58;49.41;102141.98;1742064;81;21384;-56
2022/10/17 09:19:35;;;;;;;4.67;2.87;;;;;;;17.52;49.41;102141.38;1742068;82;21046;-57
2022/10/17 09:22:11;;;;;;;;;;;;;;;17.58;50.02;102129.27;1744788;82;21673;-56
2022/10/17 09:24:55;;;;;;;4.77;3.17;;;;;;;17.64;48.97;102115.36;1758768;80;21115;-56
2022/10/17 09:27:40;;;;;;;5.27;3.30;;;;;;;17.62;49.22;102105.00;1739952;82;21002;-61
2022/10/17 09:30:18;;;;;;;4.90;2.90;;;;;;;17.56;49.00;102109.69;1758114;81;20884;-55
2022/10/17 09:32:46;;;;;;;5.33;3.13;;;;;;;17.53;49.43;102100.81;1758299;81;20923;-57
2022/10/17 09:35:13;;;;;;;6.90;3.77;;;;;;;17.28;49.04;102095.03;1741751;82;21001;-57
2022/10/17 09:37:41;;;;;;;5.60;3.07;;;;;;;16.96;49.85;102098.82;1742024;82;21479;-55
2022/10/17 09:40:21;;;;;;;6.07;3.63;;;;;;;16.83;50.54;102096.00;1741668;82;20931;-56
2022/10/17 09:42:48;;;;;;;6.07;3.30;;;;;;;16.88;51.01;102093.64;1758169;81;21454;-56
2022/10/17 09:45:23;;;;;;;4.30;2.87;;;;;;;16.92;51.42;102091.77;1757890;81;20892;-58
2022/10/17 09:48:07;;;;;;;6.20;2.90;;;;;;;16.90;50.95;102085.08;1742007;82;21509;-55
2022/10/17 09:50:35;;;;;;;4.00;2.37;;;;;;;16.94;51.74;102087.66;1758502;81;21342;-58
2022/10/17 09:53:20;;;;;;;3.93;2.53;;;;;;;17.02;51.52;102094.16;1758400;81;37776;-55
2022/10/17 09:55:57;;;;;;;5.73;2.63;;;;;;;17.00;50.87;102085.61;1742156;82;21414;-57
2022/10/17 09:58:44;;;;;;;4.90;3.10;;;;;;;16.99;50.76;102087.93;1741117;82;21519;-58
2022/10/17 10:01:22;;;;;;;4.47;2.70;;;;;;;17.18;51.21;102084.75;1742329;80;21038;-55
2022/10/17 10:04:14;;;;;;;5.43;2.43;;;;;;;17.45;50.42;102069.28;1741845;82;21220;-58
2022/10/17 10:07:04;;;;;;;5.60;3.03;;;;;;;17.64;50.01;102067.38;1742450;81;20888;-55
2022/10/17 10:09:33;;;;;;;4.63;2.70;;;;;;;17.48;48.67;102064.97;1773600;80;21044;-58
2022/10/17 10:12:05;;;;;;;5.13;2.60;;;;;;;17.21;49.27;102055.91;1739887;82;21335;-56
2022/10/17 10:14:36;;;;;;;7.03;2.30;;;;;;;17.19;50.69;102049.48;1774504;80;20918;-57
2022/10/17 10:17:25;;;;;;;5.00;2.83;;;;;;;17.19;50.16;102046.85;1740278;82;21154;-60
2022/10/17 10:19:54;;;;;;;4.90;2.70;;;;;;;17.21;49.64;102046.69;1774329;80;20997;-56
2022/10/17 10:22:22;;;;;;;4.23;2.50;;;;;;;17.24;50.01;102042.38;1740381;82;20994;-56
2022/10/17 10:25:13;;;;;;;5.27;2.47;;;;;;;17.32;50.53;102044.09;1773925;80;20863;-57
2022/10/17 10:27:42;;;;;;;4.95;3.00;;;;;;;17.40;51.38;102047.44;1740454;82;21062;-56
2022/10/17 10:30:23;;;;;;;5.37;2.53;;;;;;;17.47;49.47;102050.16;1774517;80;21240;-56
2022/10/17 10:32:50;;;;;;;4.33;2.72;;;;;;;17.28;49.21;102048.09;1773261;80;20954;-57
2022/10/17 10:35:21;;;;;;;4.97;2.40;;;;;;;17.23;49.22;102052.07;1740329;82;20927;-56
2022/10/17 10:37:53;;;;;;;4.03;2.37;;;;;;;17.41;48.48;102060.11;1774242;80;21018;-56
2022/10/17 10:40:37;;;;;;;3.70;2.40;;;;;;;17.45;48.09;102056.10;1772845;80;20955;-63
2022/10/17 10:43:06;;;;;;;4.63;2.40;;;;;;;17.48;47.36;102053.10;1739959;82;21924;-55
2022/10/17 10:45:41;;;;;;;5.07;2.20;;;;;;;17.56;47.99;102053.50;1774350;80;20935;-55
2022/10/17 10:48:24;;;;;;;3.93;2.00;;;;;;;17.65;47.72;102056.33;1774049;80;20934;-57
2022/10/17 10:51:05;;;;;;;4.17;2.07;;;;;;;17.79;47.41;102050.73;1740275;82;21477;-56
2022/10/17 10:53:52;;;;;;;5.57;2.17;;;;;;;17.86;47.25;102047.16;1774277;80;20973;-55
2022/10/17 10:56:34;;;;;;;3.80;2.30;;;;;;;17.87;47.33;102045.34;1774433;80;21001;-57
2022/10/17 10:59:07;;;;;;;4.45;2.00;;;;;;;17.96;47.68;102043.73;1774936;80;21073;-55
2022/10/17 11:01:55;;;;;;;4.57;2.00;;;;;;;17.94;47.64;102034.35;1774677;80;21002;-55
2022/10/17 11:04:35;;;;;;;6.20;2.70;;;;;;;18.01;47.66;102023.88;1740200;82;20935;-56
2022/10/17 11:07:34;;;;;;;4.00;2.07;;;;;;;17.92;46.96;102019.23;1781407;79;21022;-56
2022/10/17 11:10:26;;;;;;;5.60;2.00;;;;;;;17.63;46.83;102017.47;1803893;79;21243;-55
2022/10/17 11:13:07;;;;;;;4.00;2.43;;;;;;;17.42;47.63;102030.10;1803839;79;21073;-55
2022/10/17 11:15:48;;;;;;;4.75;2.42;;;;;;;17.38;47.87;102027.52;1804123;79;20931;-55
2022/10/17 11:18:45;;;;;;;3.70;2.40;;;;;;;17.39;47.99;102034.45;1804032;79;21826;-55
2022/10/17 11:21:48;;;;;;;9.00;5.30;;;;;;;17.38;47.99;102027.52;1803932;79;21072;-56
2022/10/17 11:24:23;;;;;;;11.00;5.80;;;;;;;17.60;48.37;102024.43;1804010;79;21098;-56
2022/10/17 11:26:55;;;;;;;7.60;3.87;;;;;;;17.87;48.00;102025.55;1803617;79;20967;-62
2022/10/17 11:29:27;;;;;;;8.27;4.23;;;;;;;18.01;46.49;102027.32;1803431;79;22083;-55
2022/10/17 11:31:53;;;;;;;4.00;2.60;;;;;;;18.04;46.02;102020.86;1804096;79;20891;-56
2022/10/17 11:34:25;;;;;;;4.60;2.20;;;;;;;18.04;45.68;102022.18;1803711;79;20930;-55
2022/10/17 11:37:00;;;;;;;6.07;2.07;;;;;;;18.11;45.04;102020.42;1803811;79;22366;-56
2022/10/17 11:39:47;;;;;;;5.73;2.17;;;;;;;18.27;44.58;102014.86;1803760;79;20863;-55
2022/10/17 11:42:19;;;;;;;3.70;1.93;;;;;;;18.52;44.39;102013.10;1803075;79;20958;-64
2022/10/17 11:44:47;;;;;;;4.80;1.90;;;;;;;18.78;44.31;102017.78;1797193;79;21073;-55
2022/10/17 11:47:37;;;;;;;2.93;1.70;;;;;;;18.83;43.41;102017.52;1772522;79;21068;-55
2022/10/17 11:50:24;;;;;;;4.58;2.00;;;;;;;18.63;43.49;102014.70;1803287;79;21244;-56